createdAt,value
2017-10-17T00:02:07.368Z,14.97
2017-10-17T00:04:36.256Z,17.10
2017-10-17T00:07:03.995Z,17.60
2017-10-17T00:09:31.513Z,16.13
2017-10-17T00:11:59.062Z,15.83
2017-10-17T00:14:26.574Z,17.00
2017-10-17T00:16:54.132Z,16.20
2017-10-17T00:19:21.635Z,15.60
2017-10-17T00:21:49.975Z,17.43
2017-10-17T00:24:17.481Z,17.63
2017-10-17T00:26:45.037Z,16.13
2017-10-17T00:29:12.562Z,16.80
2017-10-17T00:31:40.205Z,16.07
2017-10-17T00:34:08.495Z,16.63
2017-10-17T00:36:36.037Z,15.00
2017-10-17T00:39:05.357Z,14.90
2017-10-17T00:41:32.868Z,15.27
2017-10-17T00:44:01.181Z,15.50
2017-10-17T00:46:28.816Z,15.27
2017-10-17T00:48:56.385Z,16.53
2017-10-17T00:51:26.677Z,14.13
2017-10-17T00:53:54.230Z,15.33
2017-10-17T00:56:21.740Z,16.60
2017-10-17T00:58:49.289Z,15.00
2017-10-17T01:01:16.794Z,14.40
2017-10-17T01:03:44.340Z,14.93
2017-10-17T01:06:11.849Z,14.57
2017-10-17T01:08:39.353Z,14.97
2017-10-17T01:11:06.898Z,15.40
2017-10-17T01:13:34.424Z,14.17
2017-10-17T01:16:01.959Z,13.97
2017-10-17T01:18:31.007Z,13.70
2017-10-17T01:20:58.585Z,14.80
2017-10-17T01:23:27.709Z,15.37
2017-10-17T01:25:56.276Z,14.07
2017-10-17T01:28:23.815Z,14.80
2017-10-17T01:30:51.379Z,15.80
2017-10-17T01:33:18.886Z,13.57
2017-10-17T01:35:46.389Z,14.47
2017-10-17T01:38:27.458Z,13.80
2017-10-17T01:40:54.988Z,14.10
2017-10-17T01:43:26.675Z,14.10
2017-10-17T01:45:56.117Z,13.57
2017-10-17T01:48:34.254Z,13.17
2017-10-17T01:51:13.161Z,14.00
2017-10-17T01:53:41.338Z,14.13
2017-10-17T01:59:00.820Z,13.50
2017-10-17T02:01:31.193Z,12.97
2017-10-17T02:03:58.810Z,13.63
2017-10-17T02:06:26.331Z,14.33
2017-10-17T02:08:53.855Z,13.70
2017-10-17T02:11:22.257Z,13.17
2017-10-17T02:13:49.803Z,13.50
2017-10-17T02:16:18.076Z,14.17
2017-10-17T02:18:50.353Z,12.30
2017-10-17T02:21:18.685Z,13.70
2017-10-17T02:23:46.195Z,13.20
2017-10-17T02:26:23.898Z,13.17
2017-10-17T02:28:58.814Z,12.93
2017-10-17T02:31:26.365Z,12.90
2017-10-17T02:36:54.718Z,12.63
2017-10-17T02:39:22.242Z,12.70
2017-10-17T02:41:49.764Z,14.40
2017-10-17T02:44:17.286Z,13.40
2017-10-17T02:46:47.401Z,11.70
2017-10-17T02:49:21.235Z,15.10
2017-10-17T02:51:48.787Z,13.53
2017-10-17T02:54:17.057Z,13.50
2017-10-17T02:56:44.558Z,14.27
2017-10-17T02:59:12.856Z,14.20
2017-10-17T03:01:45.121Z,14.60
2017-10-17T03:04:19.125Z,13.70
2017-10-17T03:06:46.629Z,13.73
2017-10-17T03:09:14.929Z,13.60
2017-10-17T03:11:42.430Z,13.90
2017-10-17T03:14:11.317Z,13.23
2017-10-17T03:16:38.814Z,12.10
2017-10-17T03:19:06.351Z,13.30
2017-10-17T03:21:41.198Z,12.20
2017-10-17T03:24:11.157Z,12.63
2017-10-17T03:26:38.660Z,13.03
2017-10-17T03:29:06.959Z,12.30
2017-10-17T03:31:34.524Z,14.87
2017-10-17T03:34:21.545Z,13.30
2017-10-17T03:36:55.898Z,13.77
2017-10-17T03:39:23.431Z,12.90
2017-10-17T03:41:51.854Z,14.57
2017-10-17T03:44:38.106Z,13.57
2017-10-17T03:47:05.611Z,13.50
2017-10-17T03:49:37.758Z,12.90
2017-10-17T03:52:07.135Z,13.63
2017-10-17T03:54:35.436Z,13.10
2017-10-17T03:57:05.324Z,12.60
2017-10-17T03:59:35.662Z,14.20
2017-10-17T04:02:03.194Z,13.50
2017-10-17T04:04:54.102Z,15.30
2017-10-17T04:10:36.066Z,15.33
2017-10-17T04:13:12.084Z,14.70
2017-10-17T04:15:39.590Z,14.10
2017-10-17T04:18:10.977Z,16.70
2017-10-17T04:20:40.076Z,16.57
2017-10-17T04:23:21.067Z,16.97
2017-10-17T04:25:52.153Z,17.37
2017-10-17T04:31:47.770Z,18.00
2017-10-17T04:34:39.468Z,17.03
2017-10-17T04:40:28.543Z,17.10
2017-10-17T04:43:20.609Z,17.60
2017-10-17T04:45:48.961Z,17.27
2017-10-17T04:51:44.857Z,15.60
2017-10-17T04:57:12.780Z,18.43
2017-10-17T04:59:47.798Z,17.90
2017-10-17T05:02:17.849Z,18.80
2017-10-17T05:07:58.944Z,17.60
2017-10-17T05:10:50.958Z,17.77
2017-10-17T05:13:23.265Z,18.00
2017-10-17T05:15:55.445Z,17.70
2017-10-17T05:18:25.306Z,17.30
2017-10-17T05:20:53.675Z,19.70
2017-10-17T05:26:27.979Z,19.20
2017-10-17T05:28:59.846Z,19.53
2017-10-17T05:31:28.961Z,20.03
2017-10-17T05:34:08.014Z,20.63
2017-10-17T05:36:41.463Z,18.93
2017-10-17T05:39:08.969Z,19.33
2017-10-17T05:41:36.529Z,19.50
2017-10-17T05:44:08.428Z,20.70
2017-10-17T05:46:35.984Z,20.90
2017-10-17T05:49:08.826Z,21.07
2017-10-17T05:51:36.330Z,19.60
2017-10-17T05:54:03.866Z,19.73
2017-10-17T05:56:31.484Z,19.10
2017-10-17T05:58:59.026Z,19.70
2017-10-17T06:01:26.521Z,20.17
2017-10-17T06:03:54.058Z,19.70
2017-10-17T06:06:21.562Z,18.23
2017-10-17T06:08:49.127Z,20.43
2017-10-17T06:11:16.626Z,20.93
2017-10-17T06:13:44.901Z,21.00
2017-10-17T06:16:12.441Z,20.90
2017-10-17T06:18:39.945Z,18.30
2017-10-17T06:21:07.486Z,20.10
2017-10-17T06:23:35.026Z,20.53
2017-10-17T06:26:02.563Z,18.80
2017-10-17T06:28:30.829Z,20.40
2017-10-17T06:30:58.363Z,20.63
2017-10-17T06:33:25.879Z,19.03
2017-10-17T06:35:54.309Z,19.47
2017-10-17T06:38:21.808Z,17.77
2017-10-17T06:40:49.367Z,18.10
2017-10-17T06:43:16.870Z,19.50
2017-10-17T06:45:44.377Z,17.43
2017-10-17T06:48:12.688Z,17.60
2017-10-17T06:50:40.193Z,18.77
2017-10-17T06:53:07.728Z,17.90
2017-10-17T06:55:35.230Z,17.37
2017-10-17T06:58:02.770Z,16.70
2017-10-17T07:00:31.051Z,17.20
2017-10-17T07:02:58.588Z,16.20
2017-10-17T07:05:26.091Z,16.00
2017-10-17T07:07:54.386Z,15.87
2017-10-17T07:10:21.886Z,15.73
2017-10-17T07:12:49.420Z,16.23
2017-10-17T07:15:16.921Z,14.47
2017-10-17T07:17:44.454Z,14.50
2017-10-17T07:20:11.969Z,14.60
2017-10-17T07:22:39.476Z,16.43
2017-10-17T07:25:07.021Z,15.10
2017-10-17T07:27:34.523Z,13.63
2017-10-17T07:30:02.062Z,13.93
2017-10-17T07:32:29.561Z,13.90
2017-10-17T07:34:57.100Z,15.10
2017-10-17T07:37:24.601Z,14.73
2017-10-17T07:39:52.158Z,14.97
2017-10-17T07:42:19.666Z,16.07
2017-10-17T07:44:47.189Z,14.70
2017-10-17T07:47:14.722Z,14.53
2017-10-17T07:49:42.986Z,13.37
2017-10-17T07:52:10.528Z,14.13
2017-10-17T07:54:38.029Z,13.90
2017-10-17T07:57:05.560Z,14.00
2017-10-17T07:59:33.070Z,14.87
2017-10-17T08:02:00.605Z,13.20
2017-10-17T08:04:28.110Z,14.33
2017-10-17T08:06:55.654Z,13.40
2017-10-17T08:09:23.192Z,13.90
2017-10-17T08:11:50.738Z,12.80
2017-10-17T08:14:18.252Z,14.40
2017-10-17T08:16:45.761Z,12.73
2017-10-17T08:19:13.286Z,13.20
2017-10-17T08:21:40.795Z,12.10
2017-10-17T08:24:08.325Z,12.80
2017-10-17T08:26:36.590Z,12.37
2017-10-17T08:29:04.122Z,12.90
2017-10-17T08:31:31.621Z,11.80
2017-10-17T08:33:59.166Z,13.20
2017-10-17T08:36:26.666Z,12.40
2017-10-17T08:38:54.222Z,12.30
2017-10-17T08:41:21.730Z,11.93
2017-10-17T08:43:50.059Z,11.63
2017-10-17T08:46:17.565Z,12.17
2017-10-17T08:48:45.133Z,11.37
2017-10-17T08:51:12.694Z,10.80
2017-10-17T08:53:40.210Z,11.97
2017-10-17T08:56:08.522Z,11.70
2017-10-17T08:58:36.025Z,11.20
2017-10-17T09:01:03.555Z,11.73
2017-10-17T09:03:31.063Z,10.20
2017-10-17T09:05:58.602Z,11.77
2017-10-17T09:08:26.868Z,11.77
2017-10-17T09:10:54.407Z,12.07
2017-10-17T09:13:21.914Z,11.60
2017-10-17T09:15:49.468Z,10.63
2017-10-17T09:18:16.974Z,11.30
2017-10-17T09:20:45.234Z,10.80
2017-10-17T09:23:12.773Z,11.20
2017-10-17T09:25:41.042Z,11.30
2017-10-17T09:28:08.571Z,10.17
2017-10-17T09:30:36.075Z,11.43
2017-10-17T09:33:03.627Z,11.40
2017-10-17T09:35:31.128Z,11.00
2017-10-17T09:37:58.625Z,11.70
2017-10-17T09:40:26.165Z,11.00
2017-10-17T09:42:53.694Z,11.03
2017-10-17T09:45:21.225Z,11.20
2017-10-17T09:47:48.725Z,11.70
2017-10-17T09:50:16.265Z,11.10
2017-10-17T09:52:43.782Z,10.43
2017-10-17T09:55:11.321Z,10.17
2017-10-17T09:57:38.859Z,11.27
2017-10-17T10:00:07.163Z,10.30
2017-10-17T10:02:34.662Z,11.37
2017-10-17T10:05:02.196Z,10.40
2017-10-17T10:07:29.702Z,10.60
2017-10-17T10:09:57.231Z,10.27
2017-10-17T10:12:24.730Z,10.90
2017-10-17T10:14:52.584Z,9.97
2017-10-17T10:17:20.850Z,10.27
2017-10-17T10:19:48.362Z,10.77
2017-10-17T10:22:15.905Z,10.30
2017-10-17T10:24:43.397Z,9.40
2017-10-17T10:27:10.933Z,9.90
2017-10-17T10:29:38.442Z,9.93
2017-10-17T10:32:05.983Z,8.93
2017-10-17T10:34:33.481Z,9.77
2017-10-17T10:37:01.013Z,10.03
2017-10-17T10:39:28.516Z,9.13
2017-10-17T10:41:56.817Z,10.07
2017-10-17T10:44:24.312Z,10.80
2017-10-17T10:46:51.862Z,11.40
2017-10-17T10:49:19.370Z,11.20
2017-10-17T10:51:46.897Z,11.37
2017-10-17T10:54:14.481Z,10.70
2017-10-17T10:56:41.977Z,11.97
2017-10-17T10:59:09.516Z,10.00
2017-10-17T11:01:37.016Z,11.93
2017-10-17T11:04:04.555Z,12.83
2017-10-17T11:06:32.076Z,11.50
2017-10-17T11:08:59.613Z,12.43
2017-10-17T11:11:27.125Z,12.20
2017-10-17T11:13:54.710Z,12.93
2017-10-17T11:16:22.226Z,13.03
2017-10-17T11:18:49.725Z,12.80
2017-10-17T11:21:18.086Z,12.90
2017-10-17T11:23:45.593Z,11.67
2017-10-17T11:26:13.126Z,12.93
2017-10-17T11:28:40.634Z,13.17
2017-10-17T11:31:08.166Z,12.33
2017-10-17T11:33:35.661Z,13.20
2017-10-17T11:36:03.206Z,12.30
2017-10-17T11:38:30.712Z,13.50
2017-10-17T11:41:09.869Z,12.40
2017-10-17T11:43:53.254Z,11.20
2017-10-17T11:46:20.806Z,11.83
2017-10-17T11:48:48.309Z,11.33
2017-10-17T11:51:15.814Z,11.73
2017-10-17T11:53:44.030Z,11.80
2017-10-17T11:56:11.532Z,12.00
2017-10-17T11:58:39.070Z,11.33
2017-10-17T12:01:06.573Z,12.27
2017-10-17T12:03:34.108Z,12.67
2017-10-17T12:06:01.617Z,12.07
2017-10-17T12:08:29.927Z,12.03
2017-10-17T12:10:57.436Z,12.67
2017-10-17T12:13:24.978Z,12.60
2017-10-17T12:15:52.489Z,14.17
2017-10-17T12:18:20.030Z,12.60
2017-10-17T12:20:47.534Z,13.90
2017-10-17T12:23:15.108Z,12.70
2017-10-17T12:25:42.610Z,12.63
2017-10-17T12:28:10.110Z,13.53
2017-10-17T12:30:37.646Z,12.50
2017-10-17T12:33:05.931Z,13.37
2017-10-17T12:35:33.466Z,12.83
2017-10-17T12:38:00.973Z,12.70
2017-10-17T12:40:28.505Z,12.13
2017-10-17T12:42:56.015Z,13.80
2017-10-17T12:45:24.334Z,11.73
2017-10-17T12:47:51.842Z,12.10
2017-10-17T12:50:19.378Z,12.67
2017-10-17T12:52:46.884Z,12.53
2017-10-17T12:55:14.418Z,12.77
2017-10-17T12:57:42.026Z,11.37
2017-10-17T13:00:09.631Z,12.57
2017-10-17T13:02:37.129Z,12.97
2017-10-17T13:05:05.396Z,13.07
2017-10-17T13:07:32.997Z,13.03
2017-10-17T13:10:01.281Z,12.83
2017-10-17T13:12:28.810Z,14.00
2017-10-17T13:14:56.312Z,13.57
2017-10-17T13:17:24.632Z,12.40
2017-10-17T13:19:52.148Z,12.47
2017-10-17T13:22:19.690Z,12.37
2017-10-17T13:24:47.217Z,13.40
2017-10-17T13:27:15.558Z,12.53
2017-10-17T13:29:43.102Z,12.50
2017-10-17T13:32:10.628Z,13.10
2017-10-17T13:34:38.150Z,14.13
2017-10-17T13:37:05.720Z,12.60
2017-10-17T13:39:33.226Z,14.33
2017-10-17T13:42:00.740Z,12.70
2017-10-17T13:44:29.041Z,14.90
2017-10-17T13:46:56.545Z,19.77
2017-10-17T13:49:24.076Z,12.30
2017-10-17T13:51:51.578Z,13.43
2017-10-17T13:54:19.105Z,12.40
2017-10-17T13:56:46.602Z,13.20
2017-10-17T13:59:14.130Z,13.23
2017-10-17T14:01:41.650Z,12.70
2017-10-17T14:04:09.202Z,12.23
2017-10-17T14:06:37.470Z,12.00
2017-10-17T14:09:04.977Z,12.07
2017-10-17T14:11:32.527Z,12.73
2017-10-17T14:14:00.794Z,12.60
2017-10-17T14:16:28.333Z,12.30
2017-10-17T14:18:55.830Z,12.27
2017-10-17T14:21:23.374Z,13.00
2017-10-17T14:23:50.890Z,13.10
2017-10-17T14:26:18.385Z,12.10
2017-10-17T14:28:49.481Z,14.10
2017-10-17T14:31:17.890Z,13.53
2017-10-17T14:33:45.428Z,12.63
2017-10-17T14:36:12.938Z,14.00
2017-10-17T14:38:40.490Z,13.60
2017-10-17T14:41:07.989Z,12.60
2017-10-17T14:43:35.533Z,14.30
2017-10-17T14:46:03.030Z,14.77
2017-10-17T14:48:30.536Z,14.07
2017-10-17T14:50:58.852Z,14.23
2017-10-17T14:53:26.350Z,13.67
2017-10-17T14:55:53.878Z,14.03
2017-10-17T14:58:22.158Z,13.53
2017-10-17T15:00:49.701Z,14.33
2017-10-17T15:03:17.203Z,14.60
2017-10-17T15:05:45.506Z,15.73
2017-10-17T15:08:13.789Z,15.87
2017-10-17T15:10:41.365Z,17.63
2017-10-17T15:13:09.643Z,15.83
2017-10-17T15:15:37.163Z,16.30
2017-10-17T15:18:04.697Z,15.13
2017-10-17T15:20:32.962Z,14.70
2017-10-17T15:23:00.514Z,14.03
2017-10-17T15:25:28.017Z,14.60
2017-10-17T15:27:55.549Z,14.80
2017-10-17T15:30:23.054Z,14.23
2017-10-17T15:32:50.592Z,14.37
2017-10-17T15:35:18.100Z,13.13
2017-10-17T15:37:45.654Z,13.53
2017-10-17T15:40:13.157Z,13.23
2017-10-17T15:42:41.423Z,14.03
2017-10-17T15:45:08.953Z,14.47
2017-10-17T15:47:37.290Z,14.67
2017-10-17T15:50:04.826Z,14.50
2017-10-17T15:52:32.330Z,16.20
2017-10-17T15:55:00.665Z,16.43
2017-10-17T15:57:28.169Z,17.97
2017-10-17T15:59:55.700Z,18.30
2017-10-17T16:02:23.205Z,16.60
2017-10-17T16:04:50.761Z,17.83
2017-10-17T16:07:18.275Z,16.73
2017-10-17T16:09:46.340Z,17.17
2017-10-17T16:12:13.870Z,18.50
2017-10-17T16:14:42.506Z,17.50
2017-10-17T16:17:10.038Z,17.90
2017-10-17T16:19:37.532Z,17.77
2017-10-17T16:22:05.061Z,17.67
2017-10-17T16:24:32.562Z,17.77
2017-10-17T16:27:00.098Z,18.07
2017-10-17T16:29:27.598Z,18.47
2017-10-17T16:31:55.893Z,20.60
2017-10-17T16:34:23.398Z,20.67
2017-10-17T16:36:50.980Z,20.97
2017-10-17T16:39:18.489Z,21.37
2017-10-17T16:41:46.795Z,23.87
2017-10-17T16:44:14.309Z,26.73
2017-10-17T16:46:41.861Z,29.77
2017-10-17T16:49:09.358Z,28.00
2017-10-17T16:51:36.870Z,25.20
2017-10-17T16:54:04.407Z,26.23
2017-10-17T16:56:31.903Z,27.20
2017-10-17T16:59:00.205Z,26.40
2017-10-17T17:01:28.705Z,30.10
2017-10-17T17:03:57.013Z,34.43
2017-10-17T17:06:24.514Z,32.53
2017-10-17T17:08:52.064Z,31.57
2017-10-17T17:11:19.566Z,28.60
2017-10-17T17:13:47.140Z,28.50
2017-10-17T17:16:14.670Z,29.77
2017-10-17T17:18:43.038Z,32.70
2017-10-17T17:21:10.662Z,30.80
2017-10-17T17:23:38.171Z,30.87
2017-10-17T17:26:05.710Z,30.43
2017-10-17T17:28:33.210Z,28.63
2017-10-17T17:31:00.757Z,29.60
2017-10-17T17:33:28.261Z,30.30
2017-10-17T17:35:56.574Z,30.20
2017-10-17T17:38:24.084Z,26.43
2017-10-17T17:40:51.630Z,27.67
2017-10-17T17:43:19.901Z,31.50
2017-10-17T17:45:47.474Z,32.33
2017-10-17T17:48:15.738Z,33.50
2017-10-17T17:50:43.246Z,32.37
2017-10-17T17:53:10.796Z,30.47
2017-10-17T17:55:39.067Z,31.90
2017-10-17T17:58:06.606Z,30.73
2017-10-17T18:00:34.108Z,29.10
2017-10-17T18:03:01.659Z,26.97
2017-10-17T18:05:29.163Z,30.93
2017-10-17T18:07:57.466Z,40.53
2017-10-17T18:10:24.962Z,32.70
2017-10-17T18:12:52.544Z,32.53
2017-10-17T18:15:20.042Z,39.90
2017-10-17T18:17:47.561Z,37.17
2017-10-17T18:20:15.865Z,32.07
2017-10-17T18:22:43.373Z,32.27
2017-10-17T18:25:10.954Z,33.60
2017-10-17T18:27:38.497Z,34.33
2017-10-17T18:30:06.042Z,34.47
2017-10-17T18:32:33.550Z,29.40
2017-10-17T18:37:35.019Z,38.47
2017-10-17T18:40:02.603Z,34.63
2017-10-17T18:42:30.110Z,32.53
2017-10-17T18:44:57.637Z,34.77
2017-10-17T18:47:25.190Z,31.10
2017-10-17T18:49:53.454Z,32.47
2017-10-17T18:52:21.009Z,35.57
2017-10-17T18:54:48.520Z,36.87
2017-10-17T18:57:16.842Z,37.90
2017-10-17T18:59:44.334Z,37.70
2017-10-17T19:02:11.889Z,33.90
2017-10-17T19:04:39.414Z,35.07
2017-10-17T19:07:07.841Z,36.17
2017-10-17T19:09:35.359Z,38.10
2017-10-17T19:12:02.868Z,35.97
2017-10-17T19:14:30.410Z,34.70
2017-10-17T19:16:57.914Z,40.67
2017-10-17T19:19:25.458Z,38.83
2017-10-17T19:21:53.731Z,37.00
2017-10-17T19:24:21.274Z,36.77
2017-10-17T19:26:48.789Z,44.40
2017-10-17T19:29:16.342Z,53.70
2017-10-17T19:31:43.848Z,42.40
2017-10-17T19:34:12.162Z,40.23
2017-10-17T19:36:39.661Z,39.57
2017-10-17T19:39:07.205Z,37.57
2017-10-17T19:41:34.737Z,37.63
2017-10-17T19:44:02.270Z,37.57
2017-10-17T19:46:29.773Z,39.07
2017-10-17T19:48:57.311Z,39.80
2017-10-17T19:51:24.822Z,36.63
2017-10-17T19:53:52.362Z,36.40
2017-10-17T19:56:19.858Z,39.50
2017-10-17T19:58:47.404Z,37.07
2017-10-17T20:01:14.910Z,39.10
2017-10-17T20:03:42.459Z,44.10
2017-10-17T20:06:09.965Z,43.07
2017-10-17T20:08:38.266Z,44.20
2017-10-17T20:11:05.781Z,46.87
2017-10-17T20:13:33.330Z,43.07
2017-10-17T20:16:00.832Z,39.97
2017-10-17T20:18:28.370Z,45.70
2017-10-17T20:20:55.876Z,46.57
2017-10-17T20:23:23.406Z,47.13
2017-10-17T20:25:50.913Z,45.33
2017-10-17T20:28:18.447Z,42.37
2017-10-17T20:30:45.974Z,41.37
2017-10-17T20:33:13.534Z,42.00
2017-10-17T20:35:41.083Z,40.20
2017-10-17T20:38:08.590Z,40.23
2017-10-17T20:40:36.157Z,39.60
2017-10-17T20:43:03.658Z,36.40
2017-10-17T20:45:32.057Z,37.83
2017-10-17T20:48:00.322Z,37.33
2017-10-17T20:50:27.852Z,33.40
2017-10-17T20:52:55.402Z,38.27
2017-10-17T20:55:22.894Z,42.90
2017-10-17T20:57:50.429Z,45.50
2017-10-17T21:00:18.690Z,40.00
2017-10-17T21:02:46.234Z,38.63
2017-10-17T21:05:13.729Z,37.73
2017-10-17T21:07:41.255Z,38.60
2017-10-17T21:10:08.754Z,38.03
2017-10-17T21:12:36.287Z,37.53
2017-10-17T21:15:03.789Z,41.00
2017-10-17T21:17:31.367Z,39.80
2017-10-17T21:19:59.509Z,38.40
2017-10-17T21:22:27.364Z,38.63
2017-10-17T21:24:55.791Z,39.03
2017-10-17T21:27:23.465Z,37.57
2017-10-17T21:29:51.172Z,40.87
2017-10-17T21:32:18.891Z,37.90
2017-10-17T21:34:46.535Z,36.13
2017-10-17T21:37:14.224Z,36.87
2017-10-17T21:39:41.936Z,38.80
2017-10-17T21:42:09.572Z,41.27
2017-10-17T21:44:37.231Z,44.27
2017-10-17T21:47:04.890Z,43.43
2017-10-17T21:49:32.425Z,45.53
2017-10-17T21:52:00.222Z,45.10
2017-10-17T21:54:27.907Z,43.47
2017-10-17T21:56:55.591Z,43.30
2017-10-17T21:59:23.130Z,41.30
2017-10-17T22:01:50.757Z,38.10
2017-10-17T22:04:18.580Z,39.77
2017-10-17T22:06:47.009Z,34.97
2017-10-17T22:09:14.607Z,35.07
2017-10-17T22:11:42.345Z,33.10
2017-10-17T22:14:09.954Z,32.70
2017-10-17T22:16:37.705Z,35.70
2017-10-17T22:19:05.397Z,34.20
2017-10-17T22:21:33.033Z,33.87
2017-10-17T22:24:01.647Z,34.97
2017-10-17T22:26:29.305Z,36.53
2017-10-17T22:28:56.907Z,32.30
2017-10-17T22:31:24.547Z,36.07
2017-10-17T22:33:52.182Z,34.40
2017-10-17T22:36:19.804Z,30.10
2017-10-17T22:38:47.440Z,29.57
2017-10-17T22:41:15.065Z,29.60
2017-10-17T22:43:42.613Z,29.70
2017-10-17T22:46:10.168Z,28.10
2017-10-17T22:48:37.671Z,27.53
2017-10-17T22:51:05.244Z,27.80
2017-10-17T22:53:32.741Z,30.37
2017-10-17T22:56:00.274Z,29.60
2017-10-17T22:58:28.541Z,32.10
2017-10-17T23:00:56.081Z,35.30
2017-10-17T23:03:23.572Z,34.73
2017-10-17T23:05:51.129Z,36.07
2017-10-17T23:08:18.630Z,34.07
2017-10-17T23:10:46.186Z,41.37
2017-10-17T23:13:13.685Z,37.50
2017-10-17T23:15:41.977Z,38.57
2017-10-17T23:18:21.549Z,37.00
2017-10-17T23:20:49.264Z,37.23
2017-10-17T23:23:16.769Z,40.47
2017-10-17T23:25:44.307Z,40.97
2017-10-17T23:28:12.573Z,39.50
2017-10-17T23:30:40.243Z,39.50
2017-10-17T23:33:07.811Z,40.90
2017-10-17T23:35:35.546Z,39.07
2017-10-17T23:38:03.171Z,40.20
2017-10-17T23:40:30.774Z,41.67
2017-10-17T23:42:58.493Z,39.23
2017-10-17T23:45:26.185Z,38.03
2017-10-17T23:47:54.627Z,37.03
2017-10-17T23:50:23.082Z,41.33
2017-10-17T23:52:51.089Z,39.30
2017-10-17T23:55:20.238Z,36.63
2017-10-17T23:57:48.174Z,35.70
